createdAt,value
2019-03-24T00:01:06.408Z,16.10
2019-03-24T00:03:22.758Z,6.77
2019-03-24T00:05:28.560Z,14.50
2019-03-24T00:07:33.498Z,13.70
2019-03-24T00:09:38.878Z,12.60
2019-03-24T00:11:44.179Z,16.30
2019-03-24T00:13:49.152Z,22.97
2019-03-24T00:15:54.118Z,19.30
2019-03-24T00:17:59.374Z,8.53
2019-03-24T00:20:04.597Z,11.47
2019-03-24T00:22:09.520Z,15.93
2019-03-24T00:24:14.461Z,17.80
2019-03-24T00:26:19.462Z,9.30
2019-03-24T00:28:24.603Z,13.80
2019-03-24T00:30:29.529Z,13.37
2019-03-24T00:32:34.748Z,11.10
2019-03-24T00:34:42.491Z,18.17
2019-03-24T00:36:47.443Z,11.97
2019-03-24T00:38:52.514Z,11.93
2019-03-24T00:40:57.552Z,11.63
2019-03-24T00:43:21.276Z,25.77
2019-03-24T00:45:36.272Z,18.77
2019-03-24T00:47:33.236Z,16.30
2019-03-24T00:49:38.163Z,7.27
2019-03-24T00:51:43.080Z,18.07
2019-03-24T00:53:48.551Z,15.90
2019-03-24T00:55:54.325Z,14.80
2019-03-24T00:57:59.198Z,10.87
2019-03-24T01:00:05.089Z,15.13
2019-03-24T01:02:10.075Z,12.13
2019-03-24T01:04:14.987Z,14.77
2019-03-24T01:06:20.877Z,19.47
2019-03-24T01:08:25.932Z,19.80
2019-03-24T01:10:49.554Z,12.93
2019-03-24T01:12:54.455Z,16.47
2019-03-24T01:15:18.206Z,17.93
2019-03-24T01:17:42.111Z,20.10
2019-03-24T01:19:47.015Z,11.80
2019-03-24T01:21:54.432Z,12.40
2019-03-24T01:24:00.862Z,14.10
2019-03-24T01:26:05.920Z,14.00
2019-03-24T01:28:10.911Z,36.70
2019-03-24T01:30:35.523Z,17.60
2019-03-24T01:32:40.454Z,10.63
2019-03-24T01:34:45.489Z,10.40
2019-03-24T01:36:50.505Z,13.00
2019-03-24T01:39:16.250Z,18.17
2019-03-24T01:41:21.231Z,18.90
2019-03-24T01:43:45.799Z,14.47
2019-03-24T01:45:58.691Z,16.30
2019-03-24T01:47:57.356Z,14.73
2019-03-24T01:50:02.256Z,15.47
2019-03-24T01:52:07.149Z,16.97
2019-03-24T01:54:12.150Z,17.40
2019-03-24T01:56:17.080Z,17.10
2019-03-24T01:58:21.939Z,21.80
2019-03-24T02:00:27.155Z,21.43
2019-03-24T02:02:32.096Z,26.13
2019-03-24T02:04:37.078Z,16.37
2019-03-24T02:06:43.135Z,17.83
2019-03-24T02:09:09.207Z,19.83
2019-03-24T02:11:14.160Z,19.00
2019-03-24T02:13:37.841Z,18.60
2019-03-24T02:15:42.702Z,30.97
2019-03-24T02:20:12.154Z,26.10
2019-03-24T02:22:17.184Z,23.87
2019-03-24T02:24:40.862Z,32.87
2019-03-24T02:26:45.760Z,23.77
2019-03-24T02:28:50.943Z,30.93
2019-03-24T02:30:56.223Z,21.67
2019-03-24T02:33:02.008Z,29.03
2019-03-24T02:35:25.913Z,26.37
2019-03-24T02:37:30.875Z,25.00
2019-03-24T02:39:54.575Z,25.60
2019-03-24T02:41:59.486Z,21.03
2019-03-24T02:44:04.399Z,22.00
2019-03-24T02:46:23.203Z,22.57
2019-03-24T02:48:15.971Z,23.77
2019-03-24T02:50:39.643Z,34.50
2019-03-24T02:52:44.603Z,25.53
2019-03-24T02:54:49.856Z,23.17
2019-03-24T02:56:54.763Z,21.67
2019-03-24T02:58:59.920Z,30.17
2019-03-24T03:01:04.952Z,46.20
2019-03-24T03:03:10.430Z,32.33
2019-03-24T03:05:15.734Z,22.53
2019-03-24T03:07:21.557Z,40.17
2019-03-24T03:09:28.370Z,30.70
2019-03-24T03:11:34.282Z,32.17
2019-03-24T03:13:39.256Z,29.07
2019-03-24T03:15:44.394Z,22.00
2019-03-24T03:17:49.393Z,28.73
2019-03-24T03:19:54.390Z,31.50
2019-03-24T03:22:19.032Z,33.47
2019-03-24T03:24:25.188Z,36.73
2019-03-24T03:26:30.767Z,30.40
2019-03-24T03:28:36.134Z,48.23
2019-03-24T03:30:41.322Z,32.10
2019-03-24T03:33:05.088Z,27.30
2019-03-24T03:35:10.615Z,26.90
2019-03-24T03:37:15.648Z,31.00
2019-03-24T03:39:21.362Z,17.60
2019-03-24T03:41:45.146Z,30.33
2019-03-24T03:43:50.131Z,23.70
2019-03-24T03:46:14.676Z,27.93
2019-03-24T03:48:19.519Z,25.23
2019-03-24T03:50:24.483Z,35.20
2019-03-24T03:52:31.424Z,23.30
2019-03-24T03:54:36.464Z,30.33
2019-03-24T03:56:41.445Z,31.87
2019-03-24T03:58:46.686Z,30.30
2019-03-24T04:00:51.645Z,25.10
2019-03-24T04:02:57.044Z,27.17
2019-03-24T04:05:02.058Z,19.73
2019-03-24T04:07:07.027Z,24.60
2019-03-24T04:09:12.875Z,33.97
2019-03-24T04:11:37.809Z,33.30
2019-03-24T04:13:54.049Z,27.47
2019-03-24T04:15:59.398Z,19.80
2019-03-24T04:18:04.493Z,25.90
2019-03-24T04:20:12.425Z,31.20
2019-03-24T04:22:36.092Z,27.30
2019-03-24T04:24:41.028Z,21.97
2019-03-24T04:26:48.751Z,24.77
2019-03-24T04:29:12.393Z,28.30
2019-03-24T04:31:17.535Z,29.90
2019-03-24T04:33:22.789Z,23.60
2019-03-24T04:35:27.789Z,23.17
2019-03-24T04:37:51.586Z,30.43
2019-03-24T04:39:56.478Z,37.40
2019-03-24T04:42:01.536Z,26.67
2019-03-24T04:44:06.439Z,26.07
2019-03-24T04:46:31.737Z,32.83
2019-03-24T04:48:36.679Z,17.23
2019-03-24T04:50:41.837Z,21.23
2019-03-24T04:53:08.589Z,20.53
2019-03-24T04:55:13.618Z,19.27
2019-03-24T04:57:18.483Z,28.70
2019-03-24T04:59:23.432Z,13.60
2019-03-24T05:01:28.479Z,14.50
2019-03-24T05:03:46.375Z,15.90
2019-03-24T05:05:59.649Z,16.30
2019-03-24T05:08:04.750Z,17.77
2019-03-24T05:10:20.985Z,12.40
2019-03-24T05:12:25.847Z,16.70
2019-03-24T05:14:30.747Z,27.07
2019-03-24T05:16:35.639Z,18.00
2019-03-24T05:18:40.535Z,19.47
2019-03-24T05:20:45.583Z,14.77
2019-03-24T05:22:50.575Z,20.70
2019-03-24T05:24:55.567Z,16.50
2019-03-24T05:27:00.483Z,14.40
2019-03-24T05:29:05.471Z,13.53
2019-03-24T05:31:10.786Z,15.83
2019-03-24T05:33:15.751Z,20.93
2019-03-24T05:35:20.708Z,17.37
2019-03-24T05:37:27.482Z,15.30
2019-03-24T05:39:33.122Z,10.70
2019-03-24T05:41:38.034Z,21.20
2019-03-24T05:43:43.763Z,12.93
2019-03-24T05:45:49.059Z,16.60
2019-03-24T05:47:54.059Z,21.93
2019-03-24T05:50:18.056Z,11.30
2019-03-24T05:52:22.955Z,13.23
2019-03-24T05:54:46.625Z,12.80
2019-03-24T05:56:51.518Z,18.43
2019-03-24T05:58:56.552Z,20.73
2019-03-24T06:01:01.518Z,8.27
2019-03-24T06:03:06.602Z,11.20
2019-03-24T06:05:11.824Z,15.13
2019-03-24T06:07:17.966Z,12.20
2019-03-24T06:09:23.917Z,12.83
2019-03-24T06:11:39.773Z,12.03
2019-03-24T06:16:15.861Z,13.23
2019-03-24T06:18:25.724Z,18.87
2019-03-24T06:20:30.497Z,12.83
2019-03-24T06:22:35.683Z,10.67
2019-03-24T06:24:40.640Z,18.10
2019-03-24T06:26:45.574Z,12.60
2019-03-24T06:29:09.213Z,15.20
2019-03-24T06:31:14.223Z,7.80
2019-03-24T06:33:37.856Z,12.20
2019-03-24T06:35:45.794Z,9.37
2019-03-24T06:37:50.692Z,11.70
2019-03-24T06:39:55.587Z,16.13
2019-03-24T06:42:00.775Z,12.17
2019-03-24T06:44:06.433Z,8.13
2019-03-24T06:46:11.401Z,11.50
2019-03-24T06:48:16.321Z,11.80
2019-03-24T06:50:39.914Z,7.93
2019-03-24T06:55:23.912Z,8.77
2019-03-24T06:57:29.164Z,14.30
2019-03-24T06:59:35.065Z,8.27
2019-03-24T07:01:40.354Z,6.80
2019-03-24T07:03:45.878Z,9.57
2019-03-24T07:06:09.775Z,17.13
2019-03-24T07:08:33.585Z,12.90
2019-03-24T07:10:39.012Z,13.60
2019-03-24T07:12:55.507Z,13.17
2019-03-24T07:15:01.718Z,8.03
2019-03-24T07:17:06.773Z,8.37
2019-03-24T07:19:11.641Z,10.37
2019-03-24T07:21:35.422Z,17.67
2019-03-24T07:23:40.734Z,14.73
2019-03-24T07:25:45.983Z,11.70
2019-03-24T07:27:53.183Z,19.53
2019-03-24T07:29:58.221Z,11.03
2019-03-24T07:32:04.350Z,16.23
2019-03-24T07:34:09.382Z,14.00
2019-03-24T07:36:14.350Z,18.77
2019-03-24T07:38:19.345Z,8.23
2019-03-24T07:40:25.577Z,14.07
2019-03-24T07:42:31.269Z,15.90
2019-03-24T07:44:37.346Z,10.03
2019-03-24T07:49:32.280Z,12.33
2019-03-24T07:51:37.238Z,8.10
2019-03-24T07:53:42.147Z,21.27
2019-03-24T07:55:47.355Z,12.77
2019-03-24T07:57:52.290Z,10.07
2019-03-24T08:02:33.973Z,27.10
2019-03-24T08:04:39.091Z,12.17
2019-03-24T08:06:44.319Z,16.10
2019-03-24T08:09:26.900Z,10.90
2019-03-24T08:11:31.834Z,11.97
2019-03-24T08:13:36.797Z,16.07
2019-03-24T08:15:52.620Z,26.20
2019-03-24T08:17:58.501Z,18.23
2019-03-24T08:20:03.429Z,19.60
2019-03-24T08:22:08.418Z,32.10
2019-03-24T08:24:14.339Z,15.53
2019-03-24T08:26:22.899Z,13.13
2019-03-24T08:28:27.844Z,14.47
2019-03-24T08:30:34.718Z,14.57
2019-03-24T08:32:40.588Z,15.43
2019-03-24T08:35:04.387Z,26.23
2019-03-24T08:37:09.653Z,15.67
2019-03-24T08:39:14.619Z,23.20
2019-03-24T08:41:38.909Z,19.73
2019-03-24T08:43:43.900Z,14.50
2019-03-24T08:45:48.846Z,8.77
2019-03-24T08:48:12.886Z,15.33
2019-03-24T08:50:18.689Z,23.17
2019-03-24T08:52:24.506Z,10.80
2019-03-24T08:54:30.048Z,16.93
2019-03-24T08:56:35.142Z,20.30
2019-03-24T08:58:40.280Z,14.40
2019-03-24T09:00:48.486Z,12.03
2019-03-24T09:02:55.973Z,25.67
2019-03-24T09:05:01.109Z,21.63
2019-03-24T09:07:06.260Z,19.40
2019-03-24T09:09:13.576Z,17.57
2019-03-24T09:11:18.584Z,19.87
2019-03-24T09:16:06.523Z,18.77
2019-03-24T09:18:20.776Z,13.97
2019-03-24T09:20:26.727Z,28.97
2019-03-24T09:22:31.744Z,19.20
2019-03-24T09:24:36.674Z,17.73
2019-03-24T09:26:41.523Z,12.10
2019-03-24T09:28:46.944Z,19.33
2019-03-24T09:30:53.974Z,12.73
2019-03-24T09:33:00.172Z,21.83
2019-03-24T09:35:05.867Z,16.17
2019-03-24T09:37:11.194Z,21.63
2019-03-24T09:39:16.285Z,19.33
2019-03-24T09:41:21.333Z,16.60
2019-03-24T09:43:26.649Z,22.07
2019-03-24T09:45:34.953Z,15.80
2019-03-24T09:47:39.999Z,19.27
2019-03-24T09:49:44.895Z,17.77
2019-03-24T09:51:49.959Z,16.93
2019-03-24T09:53:54.950Z,18.20
2019-03-24T09:56:01.261Z,18.77
2019-03-24T09:58:06.561Z,18.70
2019-03-24T10:00:13.956Z,28.33
2019-03-24T10:02:18.921Z,17.63
2019-03-24T10:04:24.494Z,31.60
2019-03-24T10:06:29.591Z,27.20
2019-03-24T10:08:35.374Z,18.07
2019-03-24T10:10:43.808Z,19.30
2019-03-24T10:12:48.742Z,20.27
2019-03-24T10:14:53.705Z,22.73
2019-03-24T10:16:59.751Z,17.90
2019-03-24T10:19:13.491Z,16.70
2019-03-24T10:21:13.285Z,25.40
2019-03-24T10:23:18.666Z,22.37
2019-03-24T10:25:24.186Z,16.23
2019-03-24T10:27:29.430Z,30.73
2019-03-24T10:29:34.439Z,21.37
2019-03-24T10:31:39.598Z,22.43
2019-03-24T10:33:44.672Z,23.40
2019-03-24T10:35:49.571Z,17.13
2019-03-24T10:37:54.491Z,20.13
2019-03-24T10:39:59.438Z,17.73
2019-03-24T10:42:05.584Z,22.67
2019-03-24T10:44:10.686Z,19.07
2019-03-24T10:46:15.802Z,18.57
2019-03-24T10:48:20.758Z,21.57
2019-03-24T10:50:26.376Z,18.13
2019-03-24T10:52:32.419Z,13.07
2019-03-24T10:54:37.768Z,22.67
2019-03-24T10:56:43.118Z,15.67
2019-03-24T10:58:48.068Z,20.73
2019-03-24T11:00:53.420Z,11.10
2019-03-24T11:03:18.017Z,11.83
2019-03-24T11:05:34.665Z,12.47
2019-03-24T11:07:39.925Z,10.53
2019-03-24T11:09:45.290Z,7.97
2019-03-24T11:11:50.795Z,11.07
2019-03-24T11:13:56.869Z,12.07
2019-03-24T11:16:01.836Z,10.10
2019-03-24T11:18:07.679Z,11.57
2019-03-24T11:20:13.951Z,11.63
2019-03-24T11:22:19.156Z,24.10
2019-03-24T11:24:24.175Z,13.07
2019-03-24T11:26:29.150Z,19.23
2019-03-24T11:28:34.315Z,22.83
2019-03-24T11:30:39.373Z,26.00
2019-03-24T11:32:44.629Z,25.40
2019-03-24T11:34:49.981Z,20.47
2019-03-24T11:36:55.318Z,19.67
2019-03-24T11:39:19.000Z,28.87
2019-03-24T11:41:42.693Z,29.83
2019-03-24T11:43:47.987Z,13.63
2019-03-24T11:46:11.711Z,16.63
2019-03-24T11:48:16.720Z,12.27
2019-03-24T11:50:21.741Z,17.20
2019-03-24T11:52:26.914Z,21.93
2019-03-24T11:54:32.134Z,22.03
2019-03-24T11:56:38.377Z,19.20
2019-03-24T11:58:43.431Z,15.67
2019-03-24T12:00:49.464Z,22.30
2019-03-24T12:03:13.280Z,23.80
2019-03-24T12:05:18.423Z,13.60
2019-03-24T12:07:24.948Z,12.03
2019-03-24T12:09:30.530Z,14.97
2019-03-24T12:11:35.582Z,7.60
2019-03-24T12:13:40.629Z,16.03
2019-03-24T12:15:45.599Z,19.77
2019-03-24T12:17:50.560Z,9.27
2019-03-24T12:19:56.922Z,14.17
2019-03-24T12:22:04.075Z,8.70
2019-03-24T12:24:09.005Z,13.77
2019-03-24T12:26:14.103Z,13.47
2019-03-24T12:28:19.041Z,12.63
2019-03-24T12:30:23.921Z,7.93
2019-03-24T12:32:29.191Z,6.80
2019-03-24T12:34:34.082Z,7.33
2019-03-24T12:36:39.257Z,16.00
2019-03-24T12:38:44.260Z,8.10
2019-03-24T12:40:49.597Z,7.60
2019-03-24T12:43:19.323Z,9.63
2019-03-24T12:47:55.239Z,8.00
2019-03-24T12:50:11.634Z,6.10
2019-03-24T12:52:16.549Z,9.90
2019-03-24T12:54:22.070Z,9.30
2019-03-24T12:56:27.222Z,9.00
2019-03-24T12:58:32.212Z,11.40
2019-03-24T13:00:40.990Z,8.00
2019-03-24T13:02:46.746Z,9.43
2019-03-24T13:04:51.673Z,5.80
2019-03-24T13:06:56.664Z,12.20
2019-03-24T13:09:01.559Z,3.27
2019-03-24T13:11:06.597Z,7.20
2019-03-24T13:13:11.652Z,5.20
2019-03-24T13:15:16.617Z,6.93
2019-03-24T13:17:22.850Z,10.40
2019-03-24T13:19:27.791Z,14.20
2019-03-24T13:21:32.689Z,7.30
2019-03-24T13:23:39.539Z,11.73
2019-03-24T13:25:44.500Z,11.03
2019-03-24T13:27:50.477Z,3.63
2019-03-24T13:29:55.390Z,5.27
2019-03-24T13:32:00.353Z,6.43
2019-03-24T13:34:05.435Z,3.10
2019-03-24T13:36:12.874Z,3.60
2019-03-24T13:38:36.633Z,4.70
2019-03-24T13:41:00.334Z,2.70
2019-03-24T13:43:24.003Z,3.63
2019-03-24T13:45:29.050Z,7.17
2019-03-24T13:47:52.857Z,4.10
2019-03-24T13:50:16.825Z,5.80
2019-03-24T13:54:49.894Z,3.60
2019-03-24T13:57:06.392Z,2.40
2019-03-24T13:59:22.914Z,4.10
2019-03-24T14:01:28.051Z,3.20
2019-03-24T14:03:33.220Z,3.33
2019-03-24T14:05:38.224Z,9.60
2019-03-24T14:07:43.165Z,9.57
2019-03-24T14:09:48.210Z,7.60
2019-03-24T14:11:53.452Z,5.37
2019-03-24T14:13:58.414Z,7.87
2019-03-24T14:16:03.330Z,6.43
2019-03-24T14:18:08.364Z,7.13
2019-03-24T14:20:13.783Z,3.57
2019-03-24T14:22:18.686Z,5.93
2019-03-24T14:24:25.439Z,6.77
2019-03-24T14:26:30.521Z,7.57
2019-03-24T14:28:35.502Z,6.77
2019-03-24T14:30:59.192Z,11.20
2019-03-24T14:33:06.856Z,7.27
2019-03-24T14:35:11.935Z,4.37
2019-03-24T14:37:16.955Z,8.47
2019-03-24T14:39:21.983Z,6.13
2019-03-24T14:41:27.847Z,8.67
2019-03-24T14:43:33.810Z,6.57
2019-03-24T14:45:38.879Z,5.67
2019-03-24T14:47:43.731Z,3.40
2019-03-24T14:49:48.767Z,6.83
2019-03-24T14:51:53.755Z,5.53
2019-03-24T14:53:58.747Z,6.20
2019-03-24T14:56:22.419Z,5.47
2019-03-24T14:58:27.442Z,10.23
2019-03-24T15:00:37.138Z,3.47
2019-03-24T15:02:43.229Z,9.03
2019-03-24T15:05:27.308Z,6.37
2019-03-24T15:07:32.574Z,5.80
2019-03-24T15:09:41.884Z,2.53
2019-03-24T15:12:05.687Z,10.27
2019-03-24T15:14:11.683Z,3.70
2019-03-24T15:16:17.490Z,2.37
2019-03-24T15:18:23.346Z,10.23
2019-03-24T15:20:29.657Z,5.07
2019-03-24T15:22:53.654Z,3.17
2019-03-24T15:25:02.164Z,3.93
2019-03-24T15:29:34.967Z,10.70
2019-03-24T15:31:41.968Z,8.87
2019-03-24T15:33:47.805Z,11.13
2019-03-24T15:35:53.068Z,4.80
2019-03-24T15:38:08.072Z,7.93
2019-03-24T15:40:05.587Z,10.67
2019-03-24T15:42:32.378Z,6.63
2019-03-24T15:44:39.405Z,5.10
2019-03-24T15:46:44.780Z,8.80
2019-03-24T15:48:50.287Z,7.07
2019-03-24T15:53:06.868Z,10.70
2019-03-24T15:55:12.226Z,8.20
2019-03-24T15:57:18.245Z,4.90
2019-03-24T15:59:23.471Z,9.63
2019-03-24T16:01:28.584Z,5.90
2019-03-24T16:03:33.687Z,6.20
2019-03-24T16:05:39.097Z,4.90
2019-03-24T16:07:44.439Z,4.80
2019-03-24T16:09:49.791Z,5.23
2019-03-24T16:12:06.442Z,5.10
2019-03-24T16:16:43.483Z,5.60
2019-03-24T16:18:48.986Z,5.87
2019-03-24T16:20:53.936Z,6.90
2019-03-24T16:23:01.728Z,3.90
2019-03-24T16:25:11.614Z,4.57
2019-03-24T16:27:16.877Z,7.83
2019-03-24T16:29:22.224Z,8.63
2019-03-24T16:31:27.972Z,8.30
2019-03-24T16:33:33.871Z,4.43
2019-03-24T16:35:39.311Z,6.43
2019-03-24T16:37:44.822Z,6.93
2019-03-24T16:39:49.935Z,3.93
2019-03-24T16:41:55.795Z,7.10
2019-03-24T16:44:00.923Z,4.60
2019-03-24T16:46:05.952Z,13.63
2019-03-24T16:48:14.185Z,13.40
2019-03-24T16:50:37.924Z,12.37
2019-03-24T16:52:42.793Z,8.63
2019-03-24T16:54:47.994Z,8.77
2019-03-24T16:56:53.040Z,17.57
2019-03-24T16:58:58.149Z,15.13
2019-03-24T17:01:03.717Z,12.50
2019-03-24T17:03:08.714Z,13.07
2019-03-24T17:05:16.622Z,13.93
2019-03-24T17:07:21.634Z,13.03
2019-03-24T17:09:27.049Z,4.23
2019-03-24T17:11:32.081Z,7.47
2019-03-24T17:13:39.876Z,9.70
2019-03-24T17:15:44.790Z,18.73
2019-03-24T17:17:49.823Z,12.03
2019-03-24T17:19:54.738Z,16.30
2019-03-24T17:22:00.616Z,7.83
2019-03-24T17:26:40.927Z,9.90
2019-03-24T17:28:49.777Z,13.13
2019-03-24T17:30:56.532Z,12.50
2019-03-24T17:33:20.533Z,6.77
2019-03-24T17:35:25.540Z,5.50
2019-03-24T17:37:30.755Z,9.70
2019-03-24T17:39:36.686Z,5.60
2019-03-24T17:41:41.958Z,11.40
2019-03-24T17:43:47.115Z,8.90
2019-03-24T17:45:55.860Z,17.47
2019-03-24T17:48:02.037Z,11.50
2019-03-24T17:50:08.157Z,5.93
2019-03-24T17:52:16.584Z,6.03
2019-03-24T17:54:22.055Z,3.57
2019-03-24T17:56:28.506Z,7.97
2019-03-24T17:58:35.240Z,9.73
2019-03-24T18:03:44.135Z,8.13
2019-03-24T18:05:49.698Z,2.90
2019-03-24T18:08:13.431Z,5.30
2019-03-24T18:12:57.221Z,3.90
2019-03-24T18:15:03.863Z,11.63
2019-03-24T18:17:09.286Z,5.93
2019-03-24T18:19:14.336Z,9.00
2019-03-24T18:21:21.498Z,6.67
2019-03-24T18:23:27.358Z,3.70
2019-03-24T18:28:07.053Z,12.30
2019-03-24T18:30:13.539Z,3.73
2019-03-24T18:32:18.489Z,12.23
2019-03-24T18:34:23.867Z,5.13
2019-03-24T18:36:28.982Z,6.53
2019-03-24T18:38:34.160Z,5.13
2019-03-24T18:40:39.631Z,5.20
2019-03-24T18:42:48.305Z,10.50
2019-03-24T18:44:54.248Z,5.97
2019-03-24T18:47:01.861Z,7.30
2019-03-24T18:49:07.107Z,3.53
2019-03-24T18:51:15.482Z,8.60
2019-03-24T18:53:21.158Z,8.70
2019-03-24T18:55:27.234Z,5.83
2019-03-24T18:57:32.394Z,5.13
2019-03-24T18:59:37.608Z,7.13
2019-03-24T19:01:43.700Z,16.40
2019-03-24T19:03:48.699Z,10.07
2019-03-24T19:05:54.031Z,11.40
2019-03-24T19:08:17.998Z,5.60
2019-03-24T19:10:24.248Z,4.20
2019-03-24T19:12:31.941Z,5.20
2019-03-24T19:14:37.440Z,3.90
2019-03-24T19:16:42.893Z,12.90
2019-03-24T19:18:53.208Z,10.33
2019-03-24T19:20:58.195Z,6.50
2019-03-24T19:23:04.532Z,12.70
2019-03-24T19:25:12.101Z,11.10
2019-03-24T19:27:36.410Z,3.27
2019-03-24T19:29:42.871Z,8.73
2019-03-24T19:31:50.395Z,9.77
2019-03-24T19:36:25.235Z,3.70
2019-03-24T19:38:41.784Z,13.77
2019-03-24T19:40:50.329Z,5.73
2019-03-24T19:42:59.993Z,4.37
2019-03-24T19:45:06.411Z,5.50
2019-03-24T19:47:11.741Z,11.70
2019-03-24T19:49:19.739Z,7.77
2019-03-24T19:51:24.928Z,7.13
2019-03-24T19:53:29.983Z,9.00
2019-03-24T19:55:36.058Z,12.13
2019-03-24T19:57:41.942Z,11.43
2019-03-24T19:59:46.944Z,10.27
2019-03-24T20:02:12.307Z,17.50
2019-03-24T20:04:17.576Z,4.87
2019-03-24T20:07:02.681Z,10.43
2019-03-24T20:09:09.297Z,6.77
2019-03-24T20:11:15.527Z,3.83
2019-03-24T20:13:20.714Z,7.90
2019-03-24T20:15:25.754Z,5.37
2019-03-24T20:17:51.475Z,6.47
2019-03-24T20:20:03.095Z,9.67
2019-03-24T20:22:10.386Z,3.77
2019-03-24T20:26:31.699Z,10.20
2019-03-24T20:28:36.758Z,13.77
2019-03-24T20:30:45.911Z,7.53
2019-03-24T20:32:51.933Z,8.73
2019-03-24T20:34:59.560Z,4.63
2019-03-24T20:37:04.723Z,11.40
2019-03-24T20:39:10.695Z,11.30
2019-03-24T20:41:19.302Z,3.50
2019-03-24T20:43:25.425Z,5.13
2019-03-24T20:45:30.638Z,12.53
2019-03-24T20:47:35.745Z,10.33
2019-03-24T20:49:41.486Z,11.33
2019-03-24T20:51:49.416Z,12.23
2019-03-24T20:53:57.089Z,11.70
2019-03-24T20:56:06.545Z,5.40
2019-03-24T20:58:13.081Z,16.20
2019-03-24T21:00:37.165Z,5.20
2019-03-24T21:03:05.269Z,4.83
2019-03-24T21:05:11.158Z,7.43
2019-03-24T21:09:35.645Z,14.30
2019-03-24T21:11:41.277Z,16.37
2019-03-24T21:13:46.314Z,8.30
2019-03-24T21:15:57.666Z,5.60
2019-03-24T21:17:59.790Z,4.10
2019-03-24T21:20:05.977Z,9.57
2019-03-24T21:22:11.302Z,6.73
2019-03-24T21:24:19.422Z,9.67
2019-03-24T21:26:42.566Z,6.07
2019-03-24T21:28:48.115Z,7.23
2019-03-24T21:30:53.196Z,9.57
2019-03-24T21:32:59.657Z,6.00
2019-03-24T21:35:25.744Z,7.77
2019-03-24T21:37:49.506Z,5.57
2019-03-24T21:39:54.665Z,11.53
2019-03-24T21:41:59.906Z,10.67
2019-03-24T21:44:04.990Z,11.47
2019-03-24T21:46:11.598Z,7.07
2019-03-24T21:48:16.525Z,7.47
2019-03-24T21:50:40.242Z,4.23
2019-03-24T21:52:45.358Z,6.57
2019-03-24T21:54:50.892Z,10.13
2019-03-24T21:56:55.890Z,10.47
2019-03-24T21:59:01.379Z,10.57
2019-03-24T22:01:25.126Z,5.10
2019-03-24T22:03:30.088Z,11.80
2019-03-24T22:05:35.204Z,13.23
2019-03-24T22:07:40.548Z,11.60
2019-03-24T22:10:04.758Z,17.80
2019-03-24T22:12:09.976Z,23.67
2019-03-24T22:14:15.626Z,16.07
2019-03-24T22:16:20.583Z,2.50
2019-03-24T22:18:25.829Z,9.93
2019-03-24T22:20:31.947Z,19.80
2019-03-24T22:22:37.189Z,6.00
2019-03-24T22:25:01.687Z,9.50
2019-03-24T22:27:18.107Z,6.33
2019-03-24T22:29:23.206Z,12.57
2019-03-24T22:31:28.564Z,19.77
2019-03-24T22:33:45.356Z,8.87
2019-03-24T22:36:01.432Z,7.63
2019-03-24T22:38:07.392Z,9.20
2019-03-24T22:40:19.307Z,20.17
2019-03-24T22:42:25.206Z,6.73
2019-03-24T22:44:49.052Z,19.37
2019-03-24T22:46:54.137Z,14.60
2019-03-24T22:48:59.027Z,7.87
2019-03-24T22:51:04.324Z,5.20
2019-03-24T22:53:09.357Z,9.73
2019-03-24T22:55:15.655Z,17.43
2019-03-24T22:57:20.534Z,4.70
2019-03-24T22:59:25.571Z,17.43
2019-03-24T23:01:30.835Z,6.70
2019-03-24T23:03:36.969Z,7.30
2019-03-24T23:05:42.796Z,4.83
2019-03-24T23:07:47.664Z,6.97
2019-03-24T23:09:52.871Z,9.00
2019-03-24T23:11:59.194Z,10.13
2019-03-24T23:14:05.408Z,7.37
2019-03-24T23:16:10.413Z,10.93
2019-03-24T23:18:35.022Z,8.63
2019-03-24T23:20:39.951Z,3.70
2019-03-24T23:22:44.930Z,4.37
2019-03-24T23:24:49.882Z,4.23
2019-03-24T23:26:54.910Z,9.20
2019-03-24T23:29:18.588Z,4.00
2019-03-24T23:31:23.513Z,4.93
2019-03-24T23:33:28.440Z,10.43
2019-03-24T23:35:33.345Z,10.10
2019-03-24T23:37:39.289Z,12.57
2019-03-24T23:39:44.181Z,11.60
2019-03-24T23:41:49.762Z,7.27
2019-03-24T23:43:54.793Z,5.37
2019-03-24T23:45:59.872Z,6.00
2019-03-24T23:48:04.922Z,7.10
2019-03-24T23:50:10.395Z,12.30
2019-03-24T23:52:15.329Z,9.37
2019-03-24T23:54:26.975Z,9.10
2019-03-24T23:56:27.103Z,10.53
2019-03-24T23:58:50.762Z,6.23
